DW5846 Weather Reports


Display with metric or nautical units.
time (UTC)temp
F
wind
direction
speed
MPH
gust
MPH
rain 1hr
in
rain 24hr
in
rain mn
in
humidity
%
barometer
mb
20260906181555 89 208 1.0 6.0 0.00 0.00 0.00 67 1010.5
20260906180112 89 261 0.0 5.0 0.00 0.00 0.00 66 1010.7
20260906174547 88 128 1.0 3.0 0.00 0.00 0.00 64 1010.9
20260906173044 88 138 1.0 6.0 0.00 0.00 0.00 66 1011.1
20260906171541 87 260 1.0 5.0 0.00 0.00 0.00 71 1011.3
20260906170040 86 124 1.0 5.0 0.00 0.00 0.00 71 1011.4
20260906164534 85 125 0.0 2.0 0.00 0.00 0.00 73 1011.9
20260906163034 85 75 1.0 3.0 0.00 0.00 0.00 74 1011.8
20260906161528 83 208 0.0 2.0 0.00 0.00 0.00 76 1011.8
20260906160026 83 231 0.0 1.0 0.00 0.00 0.00 77 1012.0
20260906154521 81 231 0.0 2.0 0.00 0.00 0.00 78 1012.2
20260906153020 81 231 0.0 1.0 0.00 0.00 0.00 80 1012.3
20260906151528 80 230 0.0 7.0 0.00 0.00 0.00 80 1011.9
20260906150019 81 242 1.0 3.0 0.00 0.00 0.00 78 1011.7
20260906144518 81 125 0.0 3.0 0.00 0.00 0.00 78 1011.3
20260906143015 81 104 0.0 2.0 0.00 0.00 0.00 79 1011.3
20260906141516 80 130 0.0 2.0 0.00 0.00 0.00 80 1011.5
20260906140022 79 110 0.0 4.0 0.00 0.00 0.00 82 1011.5
20260906134509 78 127 0.0 3.0 0.00 0.00 0.00 84 1011.6
20260906133008 77 79 0.0 2.0 0.00 0.00 0.00 85 1011.8
20260906131507 0 0.0 0.0 0.00 0.00 0.00 1011.8
20260906130002 0 0.0 0.0 0.00 0.00 0.00 1011.5
20260906124558 0 0.0 0.0 0.00 0.00 0.00 1011.3
20260906123054 0 0.0 0.0 0.00 0.00 0.00 1011.1
20260906121556 0 0.0 0.0 0.00 0.00 0.00 1010.9
20260906120045 0 0.0 0.0 0.00 0.00 0.00 1010.8
20260906114551 0 215 0.0 0.0 0.00 0.00 0.00 1010.7
20260906113051 72 218 0.0 0.0 0.00 0.00 0.00 90 1010.5
20260906111538 72 217 0.0 1.0 0.00 0.00 0.00 90 1010.5
20260906110038 72 218 0.0 0.0 0.00 0.00 0.00 91 1010.5
20260906104537 72 218 0.0 0.0 0.00 0.00 0.00 90 1010.6
20260906103036 72 218 0.0 0.0 0.00 0.00 0.00 90 1010.5
20260906101534 72 218 0.0 0.0 0.00 0.00 0.00 90 1010.2
20260906100033 73 218 0.0 0.0 0.00 0.00 0.00 89 1010.1
20260906094534 73 218 0.0 0.0 0.00 0.00 0.00 89 1010.0
20260906093032 73 218 0.0 0.0 0.00 0.00 0.00 88 1010.2
20260906091533 74 218 0.0 0.0 0.00 0.00 0.00 87 1010.2
20260906090029 74 218 0.0 0.0 0.00 0.00 0.00 87 1010.1
20260906084528 74 218 0.0 0.0 0.00 0.00 0.00 87 1010.2
20260906083023 75 218 0.0 0.0 0.00 0.00 0.00 86 1010.1
20260906081537 75 218 0.0 1.0 0.00 0.00 0.00 86 1010.0
20260906080022 75 218 0.0 1.0 0.00 0.00 0.00 86 1009.9
20260906074522 76 218 0.0 0.0 0.00 0.00 0.00 86 1009.9
20260906073019 76 218 0.0 1.0 0.00 0.00 0.00 85 1009.9
20260906071516 76 219 0.0 1.0 0.00 0.00 0.00 85 1010.1
20260906070015 76 219 0.0 0.0 0.00 0.00 0.00 85 1010.3
20260906064515 76 219 0.0 1.0 0.00 0.00 0.00 85 1010.2
20260906063013 77 219 0.0 0.0 0.00 0.00 0.00 84 1010.4
20260906061511 77 219 0.0 1.0 0.00 0.00 0.00 84 1010.4
20260906060016 78 220 0.0 1.0 0.00 0.00 0.00 83 1010.4
20260906054506 78 79 0.0 1.0 0.00 0.00 0.00 82 1010.5
20260906053003 79 79 0.0 1.0 0.00 0.00 0.00 81 1010.4
20260906051503 79 77 0.0 2.0 0.00 0.00 0.00 81 1010.3
20260906050100 80 78 0.0 2.0 0.00 0.00 0.00 81 1010.3
20260906050004 79 78 0.0 2.0 0.00 0.00 0.00 81 1010.3
20260906044600 80 81 0.0 3.0 0.00 0.00 0.00 81 1010.2
20260906043058 80 79 0.0 2.0 0.00 0.00 0.00 82 1010.2
20260906041558 80 55 1.0 5.0 0.00 0.00 0.00 82 1010.2
20260906040157 79 54 0.0 1.0 0.00 0.00 0.00 83 1010.3
20260906034557 80 54 0.0 1.0 0.00 0.00 0.00 82 1010.1
20260906033056 80 54 0.0 1.0 0.00 0.00 0.00 82 1010.1
20260906031602 81 54 0.0 4.0 0.00 0.00 0.00 80 1009.9
20260906030056 82 64 1.0 3.0 0.00 0.00 0.00 80 1009.6
20260906024555 82 64 1.0 6.0 0.00 0.00 0.00 79 1009.4
20260906023054 82 36 0.0 5.0 0.00 0.00 0.00 79 1009.1
20260906021553 83 78 1.0 3.0 0.00 0.00 0.00 79 1008.9
20260906020101 83 57 1.0 3.0 0.00 0.00 0.00 78 1008.7
20260906014552 83 88 1.0 2.0 0.00 0.00 0.00 78 1008.3
20260906013051 84 91 0.0 1.0 0.00 0.00 0.00 76 1008.3
20260906011551 85 92 0.0 0.0 0.00 0.00 0.00 75 1008.0
20260906010050 86 92 0.0 2.0 0.00 0.00 0.00 73 1008.0
20260906004550 87 95 0.0 2.0 0.00 0.00 0.00 71 1007.7
20260906003049 88 88 0.0 3.0 0.00 0.00 0.00 70 1007.7
20260906001548 89 119 0.0 1.0 0.00 0.00 0.00 68 1007.8
20260906000048 90 120 0.0 1.0 0.00 0.00 0.00 67 1007.9
20260905234548 92 120 0.0 2.0 0.00 0.00 0.00 64 1007.9
20260905233049 94 124 1.0 4.0 0.00 0.00 0.00 60 1007.7
20260905231546 95 138 0.0 3.0 0.00 0.00 0.00 59 1007.6
20260905230051 96 143 0.0 3.0 0.00 0.00 0.00 58 1007.6
20260905224559 95 130 0.0 3.0 0.00 0.00 0.00 60 1007.5
20260905223042 95 115 1.0 5.0 0.00 0.00 0.00 59 1007.4
20260905221555 94 89 1.0 7.0 0.00 0.00 0.00 58 1007.3
20260905220041 94 154 0.0 5.0 0.00 0.00 0.00 62 1007.5
20260905214535 92 69 3.0 8.0 0.00 0.00 0.00 61 1007.6
20260905213031 92 124 4.0 12.0 0.00 0.00 0.00 63 1008.0
20260905211530 91 87 2.0 9.0 0.00 0.00 0.00 62 1008.0
20260905210029 91 62 3.0 8.0 0.00 0.00 0.00 60 1008.4
20260905204531 92 145 1.0 6.0 0.00 0.00 0.00 61 1008.6
20260905203025 91 76 2.0 10.0 0.00 0.00 0.00 63 1009.0
20260905201524 90 62 3.0 8.0 0.00 0.00 0.00 63 1009.3
20260905200025 90 85 4.0 9.0 0.00 0.00 0.00 63 1009.6
20260905194523 90 74 3.0 10.0 0.00 0.00 0.00 65 1009.7
20260905193026 89 15 3.0 10.0 0.00 0.00 0.00 65 1009.7
20260905191522 89 40 2.0 9.0 0.00 0.00 0.00 66 1010.3
20260905190024 89 51 4.0 12.0 0.00 0.00 0.00 66 1010.8
20260905184525 89 351 4.0 12.0 0.00 0.00 0.00 66 1011.0
20260905183020 90 66 3.0 10.0 0.00 0.00 0.00 65 1011.1